Time;durP1;ratioP1;P1;durP2;ratioP2;P2;SDS_P1;SDS_P2;PMS_P1;PMS_P2;Temp;Humidity;BMP_temperature;BMP_pressure;BME280_temperature;BME280_humidity;BME280_pressure;Samples;Min_cycle;Max_cycle;Signal;HPM_P1;HPM_P2
2023/06/02 00:01:31;;;;;;;2.83;2.40;;;16.00;98.50;;;;;;5011504;28;20465;-69
2023/06/02 00:03:59;;;;;;;3.70;3.40;;;16.00;98.70;;;;;;5011524;28;20550;-69
2023/06/02 00:06:33;;;;;;;2.80;2.50;;;16.00;97.70;;;;;;5010530;28;20903;-68
2023/06/02 00:09:00;;;;;;;4.17;2.57;;;16.00;97.80;;;;;;5010651;28;21015;-68
2023/06/02 00:11:27;;;;;;;5.17;3.17;;;16.00;97.40;;;;;;5011020;28;20461;-68
2023/06/02 00:13:54;;;;;;;4.87;2.97;;;16.00;97.70;;;;;;5011142;28;20577;-68
2023/06/02 00:16:21;;;;;;;3.90;3.00;;;16.00;98.10;;;;;;5011256;28;20468;-68
2023/06/02 00:18:47;;;;;;;3.67;2.60;;;15.90;99.10;;;;;;5010950;28;20477;-68
2023/06/02 00:21:14;;;;;;;3.23;2.93;;;15.90;99.10;;;;;;5010525;28;20461;-68
2023/06/02 00:23:42;;;;;;;4.20;2.93;;;15.80;99.40;;;;;;5010987;28;20477;-68
2023/06/02 00:26:09;;;;;;;3.67;3.10;;;15.80;99.90;;;;;;5010382;28;20477;-68
2023/06/02 00:28:36;;;;;;;3.23;2.70;;;15.70;99.80;;;;;;5010838;28;20485;-68
2023/06/02 00:31:02;;;;;;;3.33;2.70;;;15.60;99.30;;;;;;5010363;28;20454;-68
2023/06/02 00:33:29;;;;;;;2.93;2.63;;;15.60;99.90;;;;;;5010959;28;20468;-68
2023/06/02 00:35:56;;;;;;;4.73;2.60;;;15.50;99.90;;;;;;5010838;28;20505;-68
2023/06/02 00:38:23;;;;;;;2.73;2.50;;;15.40;99.90;;;;;;5010644;28;20481;-68
2023/06/02 00:40:51;;;;;;;4.70;2.90;;;15.40;99.70;;;;;;5010552;28;20818;-68
2023/06/02 00:43:18;;;;;;;3.97;3.07;;;15.40;99.30;;;;;;5010606;28;20488;-68
2023/06/02 00:45:44;;;;;;;3.13;2.63;;;15.40;99.40;;;;;;5010997;28;20468;-68
2023/06/02 00:48:11;;;;;;;3.87;2.83;;;15.30;99.60;;;;;;5010213;28;20491;-68
2023/06/02 00:50:38;;;;;;;4.20;2.80;;;15.30;99.90;;;;;;5010317;28;20469;-68
2023/06/02 00:53:05;;;;;;;5.37;3.33;;;15.30;99.80;;;;;;5010394;28;20560;-68
2023/06/02 00:55:32;;;;;;;2.90;2.60;;;15.20;99.90;;;;;;5010643;28;20466;-68
2023/06/02 00:58:03;;;;;;;3.20;2.80;;;15.20;99.10;;;;;;5010287;28;20477;-68
2023/06/02 01:00:33;;;;;;;3.03;2.70;;;15.10;99.40;;;;;;5010028;28;21028;-68
2023/06/02 01:03:00;;;;;;;4.10;3.10;;;15.10;99.30;;;;;;5010262;28;20881;-68
2023/06/02 01:05:27;;;;;;;4.60;3.33;;;15.10;99.60;;;;;;5010497;28;20526;-68
2023/06/02 01:07:58;;;;;;;2.87;2.60;;;15.00;99.70;;;;;;5010026;28;21031;-68
2023/06/02 01:10:26;;;;;;;3.43;2.93;;;15.00;99.60;;;;;;5009747;28;20469;-68
2023/06/02 01:12:54;;;;;;;3.13;2.83;;;15.00;99.70;;;;;;5010322;28;20465;-68
2023/06/02 01:15:22;;;;;;;4.03;3.57;;;15.00;99.50;;;;;;5010012;28;20457;-68
2023/06/02 01:17:50;;;;;;;4.93;3.17;;;14.90;99.00;;;;;;5010870;28;20608;-68
2023/06/02 01:20:21;;;;;;;5.00;3.10;;;14.90;99.30;;;;;;5013650;28;20493;-68
2023/06/02 01:22:57;;;;;;;4.57;3.70;;;14.90;99.40;;;;;;5014488;28;21003;-68
2023/06/02 01:25:27;;;;;;;5.30;3.17;;;14.80;99.30;;;;;;5014099;28;20498;-68
2023/06/02 01:27:56;;;;;;;4.37;2.90;;;14.80;99.30;;;;;;5014877;28;20875;-68
2023/06/02 01:30:24;;;;;;;4.30;3.40;;;14.70;99.00;;;;;;5006211;28;20576;-68
2023/06/02 01:33:05;;;;;;;4.07;2.83;;;14.70;99.00;;;;;;5014647;28;20496;-69
2023/06/02 01:35:35;;;;;;;4.40;3.10;;;14.70;99.00;;;;;;5014379;28;20457;-67
2023/06/02 01:38:05;;;;;;;3.53;2.90;;;14.70;99.30;;;;;;5013644;28;20488;-67
2023/06/02 01:40:34;;;;;;;5.50;2.57;;;14.70;99.10;;;;;;5013620;28;20467;-67
2023/06/02 01:43:02;;;;;;;2.93;2.60;;;14.70;99.00;;;;;;5013603;28;20464;-68
2023/06/02 01:45:30;;;;;;;3.60;3.30;;;14.70;99.20;;;;;;5014041;28;20461;-67
2023/06/02 01:48:02;;;;;;;5.77;3.47;;;14.70;99.20;;;;;;5013308;28;20488;-68
2023/06/02 01:50:29;;;;;;;3.83;3.43;;;14.60;99.20;;;;;;5013384;28;20495;-67
2023/06/02 01:52:56;;;;;;;3.53;3.07;;;14.60;99.40;;;;;;5013639;28;20551;-68
2023/06/02 01:55:22;;;;;;;3.23;2.77;;;14.60;99.30;;;;;;5013480;28;21086;-68
2023/06/02 01:57:51;;;;;;;5.67;2.70;;;14.60;99.40;;;;;;5013765;28;20477;-67
2023/06/02 02:00:19;;;;;;;3.20;2.60;;;14.60;99.70;;;;;;5012751;28;21110;-68
2023/06/02 02:02:46;;;;;;;4.40;3.00;;;14.60;99.40;;;;;;5013648;28;20552;-68
2023/06/02 02:05:13;;;;;;;4.53;3.80;;;14.60;99.50;;;;;;5013110;28;20488;-68
2023/06/02 02:07:42;;;;;;;4.60;2.83;;;14.50;99.30;;;;;;5013320;28;21017;-67
2023/06/02 02:10:10;;;;;;;3.57;2.87;;;14.50;99.90;;;;;;5012479;28;20469;-68
2023/06/02 02:12:37;;;;;;;4.13;2.93;;;14.50;99.90;;;;;;5013419;28;20909;-68
2023/06/02 02:15:07;;;;;;;4.90;2.90;;;14.50;99.90;;;;;;5013037;28;20472;-68
2023/06/02 02:17:34;;;;;;;4.93;3.33;;;14.40;99.90;;;;;;5013291;28;20531;-68
2023/06/02 02:20:05;;;;;;;4.30;3.40;;;14.30;99.90;;;;;;5012514;28;20588;-68
2023/06/02 02:22:32;;;;;;;2.97;2.70;;;14.20;99.90;;;;;;5013143;28;20515;-68
2023/06/02 02:24:58;;;;;;;4.33;3.27;;;14.20;99.90;;;;;;5012859;28;20461;-70
2023/06/02 02:27:25;;;;;;;6.07;3.67;;;14.10;99.90;;;;;;5012965;28;20489;-69
2023/06/02 02:29:52;;;;;;;5.13;3.60;;;14.10;99.90;;;;;;5011666;28;20831;-69
2023/06/02 02:32:20;;;;;;;3.20;2.90;;;14.10;99.90;;;;;;5012664;28;20465;-69
2023/06/02 02:34:48;;;;;;;4.47;3.27;;;14.00;99.90;;;;;;5012903;28;20468;-69
2023/06/02 02:37:16;;;;;;;4.13;3.40;;;14.00;99.90;;;;;;5012331;28;20477;-69
2023/06/02 02:39:43;;;;;;;3.43;3.13;;;14.00;99.90;;;;;;5012470;28;20472;-69
2023/06/02 02:42:10;;;;;;;4.93;4.43;;;14.00;99.90;;;;;;5012407;28;20957;-69
2023/06/02 02:44:36;;;;;;;3.53;3.20;;;14.00;99.90;;;;;;5012661;28;20472;-69
2023/06/02 02:47:03;;;;;;;4.10;3.20;;;14.00;99.90;;;;;;5012195;28;20493;-69
2023/06/02 02:49:32;;;;;;;3.63;3.13;;;14.00;99.90;;;;;;5012571;28;20496;-69
2023/06/02 02:51:58;;;;;;;4.10;3.17;;;13.90;99.90;;;;;;5012421;28;20461;-69
2023/06/02 02:54:25;;;;;;;5.23;3.37;;;13.90;99.90;;;;;;5004490;28;20491;-69
2023/06/02 02:56:52;;;;;;;2.97;2.67;;;13.90;99.90;;;;;;5012561;28;20519;-68
2023/06/02 02:59:20;;;;;;;4.50;3.20;;;13.90;99.90;;;;;;5011858;28;20461;-68
2023/06/02 03:01:47;;;;;;;4.30;3.90;;;13.90;99.90;;;;;;5012148;28;20949;-68
2023/06/02 03:04:18;;;;;;;3.73;3.27;;;13.90;99.90;;;;;;5012031;28;20465;-68
2023/06/02 03:06:48;;;;;;;3.60;3.27;;;13.80;99.90;;;;;;5012692;28;20461;-69
2023/06/02 03:09:15;;;;;;;3.63;3.20;;;13.80;99.90;;;;;;5012315;28;20461;-69
2023/06/02 03:11:42;;;;;;;3.90;3.50;;;13.90;99.90;;;;;;5012587;28;20463;-69
2023/06/02 03:14:09;;;;;;;4.80;3.53;;;13.80;99.90;;;;;;5012648;28;20474;-68
2023/06/02 03:16:37;;;;;;;4.93;3.47;;;13.80;99.90;;;;;;5012868;28;20474;-68
2023/06/02 03:19:03;;;;;;;4.70;3.53;;;13.80;99.90;;;;;;5011624;28;21043;-68
2023/06/02 03:21:31;;;;;;;4.47;3.70;;;13.80;99.90;;;;;;5012138;28;20473;-68
2023/06/02 03:24:00;;;;;;;4.47;3.80;;;13.80;99.90;;;;;;5012396;28;20882;-68
2023/06/02 03:26:27;;;;;;;4.47;3.47;;;13.80;99.90;;;;;;5012055;28;20865;-68
2023/06/02 03:28:54;;;;;;;4.20;3.80;;;13.80;99.90;;;;;;5011591;28;20488;-67
2023/06/02 03:31:24;;;;;;;4.20;3.60;;;13.70;99.90;;;;;;5011369;28;20461;-68
2023/06/02 03:33:50;;;;;;;6.73;3.60;;;13.70;99.90;;;;;;5011500;28;20466;-68
2023/06/02 03:36:19;;;;;;;4.20;3.40;;;13.70;99.90;;;;;;5080261;23;20461;-67
2023/06/02 03:38:46;;;;;;;5.13;4.00;;;13.70;99.90;;;;;;5074119;28;20502;-67
2023/06/02 03:41:14;;;;;;;6.83;3.43;;;13.70;99.90;;;;;;5068440;28;20958;-68
2023/06/02 03:43:41;;;;;;;5.10;3.90;;;13.70;99.90;;;;;;5071141;28;20476;-68
2023/06/02 03:46:07;;;;;;;5.97;3.90;;;13.70;99.90;;;;;;5070267;28;20830;-68
2023/06/02 03:48:35;;;;;;;6.60;4.40;;;13.70;99.90;;;;;;5070668;28;20492;-66
2023/06/02 03:51:03;;;;;;;4.23;3.53;;;13.60;99.90;;;;;;5069734;28;20954;-67
2023/06/02 03:53:29;;;;;;;6.13;3.50;;;13.60;99.90;;;;;;5070679;28;20462;-67
2023/06/02 03:55:56;;;;;;;5.30;3.93;;;13.60;99.90;;;;;;5069609;28;20462;-68
2023/06/02 03:58:25;;;;;;;4.90;3.90;;;13.60;99.90;;;;;;5072686;28;20478;-67
2023/06/02 04:00:54;;;;;;;4.20;3.23;;;13.60;99.90;;;;;;5066841;28;20458;-68
2023/06/02 04:03:22;;;;;;;4.40;3.40;;;13.60;99.90;;;;;;5069566;28;20458;-67
2023/06/02 04:05:49;;;;;;;5.03;4.37;;;13.60;99.90;;;;;;5069881;28;20459;-68
2023/06/02 04:08:16;;;;;;;5.73;4.30;;;13.50;99.90;;;;;;5070006;28;20482;-68
2023/06/02 04:10:43;;;;;;;5.00;3.77;;;13.60;99.90;;;;;;5069587;28;20467;-67
2023/06/02 04:13:10;;;;;;;5.20;3.87;;;13.50;99.90;;;;;;5070071;28;20458;-67
2023/06/02 04:15:38;;;;;;;4.83;4.03;;;13.50;99.90;;;;;;5070402;28;20903;-68
2023/06/02 04:18:05;;;;;;;4.90;3.97;;;13.50;99.90;;;;;;5069731;28;21001;-67
2023/06/02 04:20:31;;;;;;;4.43;3.70;;;13.50;99.90;;;;;;5068687;28;20830;-67
2023/06/02 04:22:58;;;;;;;4.10;3.70;;;13.50;99.90;;;;;;5069918;28;20466;-66
2023/06/02 04:25:25;;;;;;;5.67;4.00;;;13.50;99.90;;;;;;5069537;28;20462;-67
2023/06/02 04:27:52;;;;;;;4.90;3.87;;;13.50;99.90;;;;;;5070380;28;20577;-67
2023/06/02 04:30:19;;;;;;;4.90;3.70;;;13.50;99.90;;;;;;5067894;28;20454;-65
2023/06/02 04:32:47;;;;;;;6.20;4.03;;;13.50;99.90;;;;;;5070400;28;20458;-67
2023/06/02 04:35:13;;;;;;;6.77;4.10;;;13.50;99.90;;;;;;5069932;28;20470;-69
2023/06/02 04:37:43;;;;;;;6.60;4.17;;;13.50;99.90;;;;;;5070037;28;20489;-69
2023/06/02 04:40:11;;;;;;;4.87;4.30;;;13.60;99.90;;;;;;5069385;28;20545;-69
2023/06/02 04:42:38;;;;;;;8.37;4.10;;;13.50;99.90;;;;;;5070293;28;20458;-68
2023/06/02 04:45:11;;;;;;;7.60;4.37;;;13.50;99.90;;;;;;5070104;28;20459;-69
2023/06/02 04:47:38;;;;;;;4.93;4.23;;;13.50;99.90;;;;;;5070001;28;20549;-68
2023/06/02 04:50:09;;;;;;;4.37;3.50;;;13.60;99.90;;;;;;5069531;28;20462;-68
2023/06/02 04:52:38;;;;;;;5.47;4.33;;;13.60;99.90;;;;;;5069798;28;20490;-68
2023/06/02 04:55:08;;;;;;;7.33;3.93;;;13.60;99.90;;;;;;5070099;28;20458;-68
2023/06/02 04:57:34;;;;;;;4.80;3.63;;;13.60;99.90;;;;;;5069982;28;20502;-68
2023/06/02 05:00:03;;;;;;;7.10;3.90;;;13.50;99.90;;;;;;5069556;28;20465;-68
2023/06/02 05:02:30;;;;;;;6.47;4.30;;;13.60;99.90;;;;;;5069707;28;20493;-69
2023/06/02 05:04:57;;;;;;;5.97;3.90;;;13.60;99.90;;;;;;5069826;28;20849;-69
2023/06/02 05:07:25;;;;;;;5.53;4.20;;;13.60;99.90;;;;;;5069407;28;20848;-68
2023/06/02 05:09:52;;;;;;;6.70;4.30;;;13.60;99.90;;;;;;5069422;28;20831;-69
2023/06/02 05:12:19;;;;;;;7.50;5.07;;;13.70;99.90;;;;;;5069477;28;20466;-68
2023/06/02 05:14:46;;;;;;;5.33;3.90;;;13.70;99.90;;;;;;5069784;28;20469;-69
2023/06/02 05:17:13;;;;;;;5.53;3.47;;;13.70;99.90;;;;;;5069404;28;20482;-67
2023/06/02 05:19:42;;;;;;;4.37;3.97;;;13.70;99.90;;;;;;5069083;28;20455;-69
2023/06/02 05:22:09;;;;;;;5.13;4.63;;;13.70;99.90;;;;;;5069450;28;20462;-69
2023/06/02 05:24:37;;;;;;;5.00;4.50;;;13.70;99.90;;;;;;5069769;28;20462;-69
2023/06/02 05:27:05;;;;;;;4.70;4.27;;;13.70;99.90;;;;;;5069742;28;20565;-69
2023/06/02 05:29:31;;;;;;;9.40;4.90;;;13.80;99.90;;;;;;5069019;28;20916;-69
2023/06/02 05:31:58;;;;;;;5.17;4.07;;;13.80;99.90;;;;;;5069263;28;20462;-68
2023/06/02 05:34:25;;;;;;;7.33;4.10;;;13.80;99.90;;;;;;5069091;28;20461;-69
2023/06/02 05:36:52;;;;;;;7.83;4.97;;;13.80;99.90;;;;;;5069550;28;20477;-69
2023/06/02 05:39:18;;;;;;;5.43;4.43;;;13.90;99.90;;;;;;5068970;28;20465;-68
2023/06/02 05:41:46;;;;;;;6.60;4.70;;;14.00;99.90;;;;;;5069340;28;20825;-68
2023/06/02 05:44:13;;;;;;;6.33;4.73;;;14.00;99.90;;;;;;5069159;28;20523;-68
2023/06/02 05:46:41;;;;;;;5.50;4.13;;;14.00;99.90;;;;;;5069468;28;20529;-69
2023/06/02 05:49:08;;;;;;;5.77;4.40;;;14.10;99.90;;;;;;5069193;28;20485;-68
2023/06/02 05:51:34;;;;;;;5.77;3.97;;;14.10;99.90;;;;;;5069083;28;20458;-69
2023/06/02 05:54:01;;;;;;;6.23;4.67;;;14.20;99.90;;;;;;5069648;28;20473;-68
2023/06/02 05:56:28;;;;;;;5.97;4.47;;;14.20;99.90;;;;;;5069007;28;20462;-69
2023/06/02 05:58:56;;;;;;;5.50;4.87;;;14.20;99.90;;;;;;5069047;28;20485;-68
2023/06/02 06:01:22;;;;;;;6.50;3.97;;;14.20;99.90;;;;;;5068766;28;20804;-69
2023/06/02 06:03:49;;;;;;;8.50;4.60;;;14.30;99.90;;;;;;5069257;28;20462;-69
2023/06/02 06:06:16;;;;;;;4.63;4.10;;;14.40;99.90;;;;;;5063575;28;20509;-68
2023/06/02 06:08:43;;;;;;;7.03;4.47;;;14.40;99.90;;;;;;5064289;28;20478;-69
2023/06/02 06:11:10;;;;;;;6.63;4.87;;;14.40;99.90;;;;;;5072699;28;20516;-69
2023/06/02 06:13:36;;;;;;;6.47;4.70;;;14.50;99.90;;;;;;5064857;28;20859;-68
2023/06/02 06:16:05;;;;;;;4.90;4.23;;;14.50;99.90;;;;;;5072768;28;20466;-68
2023/06/02 06:18:31;;;;;;;8.50;5.00;;;14.50;99.90;;;;;;5069625;28;20479;-68
2023/06/02 06:20:58;;;;;;;5.10;3.83;;;14.60;99.90;;;;;;5067104;28;20470;-69
2023/06/02 06:23:25;;;;;;;5.90;4.80;;;14.70;99.90;;;;;;5072164;28;20468;-67
2023/06/02 06:25:52;;;;;;;6.53;5.00;;;14.70;99.90;;;;;;5072691;28;20976;-68
2023/06/02 06:28:19;;;;;;;6.73;4.70;;;14.80;99.90;;;;;;5071213;28;20493;-68
2023/06/02 06:30:46;;;;;;;8.37;6.80;;;14.80;99.90;;;;;;5065025;28;21136;-69
2023/06/02 06:33:14;;;;;;;7.30;5.47;;;14.80;99.90;;;;;;5072246;28;20793;-68
2023/06/02 06:35:40;;;;;;;5.57;4.53;;;14.80;99.90;;;;;;5072348;28;20458;-68
2023/06/02 06:38:07;;;;;;;5.20;4.07;;;14.90;99.90;;;;;;5072196;28;20527;-69
2023/06/02 06:40:34;;;;;;;7.63;4.67;;;15.00;99.90;;;;;;5071498;28;20458;-68
2023/06/02 06:43:01;;;;;;;4.90;4.13;;;15.10;99.90;;;;;;5072467;28;20463;-68
2023/06/02 06:45:27;;;;;;;5.43;4.70;;;15.10;99.90;;;;;;5071983;28;20467;-69
2023/06/02 06:47:54;;;;;;;5.27;4.50;;;15.20;99.90;;;;;;5071871;28;20485;-69
2023/06/02 06:50:22;;;;;;;5.57;4.97;;;15.30;99.90;;;;;;5071588;28;20455;-68
2023/06/02 06:52:50;;;;;;;7.50;5.30;;;15.30;99.90;;;;;;5072240;28;20482;-67
2023/06/02 06:55:16;;;;;;;6.80;4.60;;;15.40;99.90;;;;;;5071804;28;20458;-68
2023/06/02 06:57:43;;;;;;;6.13;4.80;;;15.40;99.90;;;;;;5072217;28;20470;-68
2023/06/02 07:00:11;;;;;;;5.47;4.70;;;15.50;99.90;;;;;;5071114;28;20484;-68
2023/06/02 07:02:38;;;;;;;4.93;4.33;;;15.60;99.90;;;;;;5071520;28;20454;-69
2023/06/02 07:05:05;;;;;;;8.97;5.03;;;15.60;99.90;;;;;;5072058;28;20454;-69
2023/06/02 07:07:33;;;;;;;6.57;4.40;;;15.70;99.90;;;;;;5071400;28;20852;-68
2023/06/02 07:10:00;;;;;;;6.77;4.57;;;15.80;99.90;;;;;;5071237;28;20485;-68
2023/06/02 07:12:27;;;;;;;6.23;4.77;;;15.90;99.90;;;;;;5071413;28;20962;-69
2023/06/02 07:14:54;;;;;;;6.27;4.80;;;15.90;99.90;;;;;;5071760;28;20463;-69
2023/06/02 07:17:21;;;;;;;7.40;4.80;;;16.00;99.90;;;;;;5070954;28;20803;-69
2023/06/02 07:19:47;;;;;;;6.13;4.93;;;16.20;99.90;;;;;;5071168;28;20461;-69
2023/06/02 07:22:14;;;;;;;5.60;4.37;;;16.20;99.90;;;;;;5071622;28;20459;-69
2023/06/02 07:24:43;;;;;;;5.37;4.23;;;16.30;99.90;;;;;;5071460;28;20877;-68
2023/06/02 07:27:10;;;;;;;6.63;4.70;;;16.40;99.90;;;;;;5071468;28;20514;-69
2023/06/02 07:29:37;;;;;;;5.53;4.93;;;16.50;99.90;;;;;;5070725;28;20466;-69
2023/06/02 07:32:03;;;;;;;5.10;4.60;;;16.60;99.90;;;;;;5071249;28;20464;-68
2023/06/02 07:34:30;;;;;;;9.40;5.40;;;16.60;99.90;;;;;;5071301;28;20466;-68
2023/06/02 07:37:00;;;;;;;5.57;4.70;;;16.60;99.90;;;;;;5071264;28;20489;-69
2023/06/02 07:39:27;;;;;;;5.97;4.90;;;16.60;99.90;;;;;;5070598;28;20455;-69
2023/06/02 07:41:55;;;;;;;5.37;4.40;;;16.70;99.90;;;;;;5070941;28;21063;-68
2023/06/02 07:44:22;;;;;;;9.13;5.30;;;16.70;99.90;;;;;;5070682;28;20486;-67
2023/06/02 07:46:49;;;;;;;6.03;4.57;;;16.70;99.90;;;;;;5070987;28;20474;-69
2023/06/02 07:49:16;;;;;;;6.30;4.87;;;16.80;99.90;;;;;;5070669;28;20482;-68
2023/06/02 07:51:42;;;;;;;6.30;4.60;;;16.90;99.90;;;;;;5062446;28;20470;-68
2023/06/02 07:54:09;;;;;;;5.93;4.57;;;17.00;99.90;;;;;;5071062;28;20470;-69
2023/06/02 07:56:36;;;;;;;6.43;4.60;;;17.10;99.90;;;;;;5070652;28;20463;-69
2023/06/02 07:59:04;;;;;;;8.10;4.63;;;17.20;99.90;;;;;;5070456;28;20474;-68
2023/06/02 08:01:31;;;;;;;5.83;4.40;;;17.20;99.90;;;;;;5070132;28;20469;-68
2023/06/02 08:06:26;;;;;;;6.40;4.90;;;17.40;99.90;;;;;;5090028;23;20502;-94
2023/06/02 08:08:53;;;;;;;5.60;4.37;;;17.50;99.90;;;;;;5095403;28;20474;-94
2023/06/02 08:11:20;;;;;;;5.77;3.90;;;17.50;99.90;;;;;;5094767;28;20482;-93
2023/06/02 08:13:47;;;;;;;5.53;4.80;;;17.60;99.90;;;;;;5094481;28;20560;-93
2023/06/02 08:16:15;;;;;;;4.80;3.80;;;17.70;99.90;;;;;;5094031;28;20457;-95
2023/06/02 08:18:42;;;;;;;5.80;4.33;;;17.80;99.90;;;;;;5100529;28;20808;-94
2023/06/02 08:21:08;;;;;;;4.43;4.03;;;17.90;99.90;;;;;;5100515;28;20469;-93
2023/06/02 08:23:35;;;;;;;5.80;4.90;;;18.00;99.90;;;;;;5098090;28;20659;-93
2023/06/02 08:26:02;;;;;;;7.83;4.20;;;18.10;99.90;;;;;;5100733;28;20465;-93
2023/06/02 08:28:29;;;;;;;5.30;4.80;;;18.20;99.90;;;;;;5097033;28;20985;-93
2023/06/02 08:30:58;;;;;;;7.23;5.00;;;18.20;99.90;;;;;;5095883;28;20572;-94
2023/06/02 08:33:27;;;;;;;5.03;4.40;;;18.20;99.90;;;;;;5097795;28;20464;-94
2023/06/02 08:35:54;;;;;;;10.70;4.73;;;18.30;99.90;;;;;;5101894;28;20453;-93
2023/06/02 08:38:21;;;;;;;5.57;4.00;;;18.30;99.90;;;;;;5104234;28;20454;-94
2023/06/02 08:40:48;;;;;;;6.27;4.70;;;18.40;99.90;;;;;;5109027;28;20480;-95
2023/06/02 08:43:16;;;;;;;5.30;4.10;;;18.60;99.90;;;;;;5103563;28;20989;-94
2023/06/02 08:45:44;;;;;;;4.90;4.23;;;18.70;99.90;;;;;;5109710;28;20433;-94
2023/06/02 08:48:16;;;;;;;7.73;4.77;;;18.80;99.90;;;;;;5117815;28;20453;-95
2023/06/02 08:50:48;;;;;;;6.40;4.70;;;18.90;99.90;;;;;;5097131;28;20483;-93
2023/06/02 08:53:16;;;;;;;5.07;4.50;;;19.00;99.90;;;;;;5102557;28;20483;-93
2023/06/02 08:55:44;;;;;;;5.00;4.23;;;19.00;99.90;;;;;;5105590;28;20458;-94
2023/06/02 08:58:13;;;;;;;5.00;4.30;;;19.00;99.90;;;;;;5107255;28;20464;-94
2023/06/02 09:00:41;;;;;;;4.40;4.00;;;19.20;99.90;;;;;;5105105;28;20474;-94
2023/06/02 09:03:08;;;;;;;5.03;4.33;;;19.30;99.90;;;;;;5103866;28;20462;-94
2023/06/02 09:05:38;;;;;;;4.77;4.27;;;19.40;99.90;;;;;;5097301;28;20471;-94
2023/06/02 09:08:10;;;;;;;5.53;4.87;;;19.50;99.90;;;;;;5098299;28;20993;-94
2023/06/02 09:10:40;;;;;;;5.70;4.47;;;19.60;99.90;;;;;;5095034;28;20473;-94
2023/06/02 09:13:07;;;;;;;4.93;4.40;;;19.60;99.90;;;;;;5096171;28;20878;-95
2023/06/02 09:15:35;;;;;;;7.10;5.13;;;19.70;99.90;;;;;;5094600;28;20515;-93
2023/06/02 09:18:12;;;;;;;6.70;4.90;;;19.80;99.90;;;;;;5093755;28;20473;-94
2023/06/02 09:20:39;;;;;;;5.63;4.70;;;19.80;99.90;;;;;;5092276;28;21016;-93
2023/06/02 09:23:07;;;;;;;6.20;4.53;;;19.90;99.90;;;;;;5093152;28;20461;-94
2023/06/02 09:25:38;;;;;;;6.53;5.33;;;19.90;99.90;;;;;;5093478;28;20454;-93
2023/06/02 09:28:05;;;;;;;5.30;4.50;;;20.00;99.90;;;;;;5093504;28;20461;-93
2023/06/02 09:30:32;;;;;;;6.60;4.77;;;20.10;99.90;;;;;;5092458;28;20508;-94
2023/06/02 09:36:30;;;;;;;7.23;4.60;;;20.30;99.90;;;;;;5025122;28;20465;-95
2023/06/02 09:38:57;;;;;;;5.40;4.33;;;20.40;99.90;;;;;;5098622;28;20474;-95
2023/06/02 09:41:38;;;;;;;5.70;4.33;;;20.60;99.90;;;;;;5104566;28;20481;-94
2023/06/02 09:44:29;;;;;;;;;;;;;;;;;;;;;
2023/06/02 09:47:28;;;;;;;7.17;4.73;;;20.60;99.90;;;;;;5111725;28;20438;-95
2023/06/02 09:50:32;;;;;;;6.40;4.80;;;20.80;99.90;;;;;;5108625;28;20475;-95
2023/06/02 09:53:28;;;;;;;;;;;;;;;;;;;;;
2023/06/02 10:12:05;;;;;;;5.10;4.60;;;21.40;99.90;;;;;;5021819;22;20549;-68
2023/06/02 10:15:06;;;;;;;6.70;4.53;;;21.40;99.90;;;;;;5042296;28;20470;-68
2023/06/02 10:17:43;;;;;;;6.90;4.87;;;21.40;99.90;;;;;;5051409;28;21018;-68
2023/06/02 10:20:24;;;;;;;6.50;5.57;;;21.50;99.90;;;;;;5052631;28;20464;-68
2023/06/02 10:23:14;;;;;;;7.50;4.70;;;21.70;99.90;;;;;;5053133;28;20464;-69
2023/06/02 10:26:00;;;;;;;5.73;5.13;;;21.80;99.90;;;;;;5052680;28;20544;-68
2023/06/02 10:28:28;;;;;;;5.07;4.57;;;21.80;99.90;;;;;;5052662;28;20483;-68
2023/06/02 10:31:11;;;;;;;4.90;4.33;;;21.90;99.90;;;;;;5052564;28;20861;-68
2023/06/02 10:33:45;;;;;;;5.60;4.23;;;22.00;99.90;;;;;;5034759;28;20473;-68
2023/06/02 10:36:13;;;;;;;5.73;5.00;;;22.10;99.90;;;;;;5031726;28;20869;-68
2023/06/02 10:38:40;;;;;;;5.57;4.60;;;22.10;99.60;;;;;;5032494;28;20521;-69
2023/06/02 10:41:07;;;;;;;5.00;4.03;;;22.20;99.90;;;;;;5032245;28;20458;-69
2023/06/02 10:43:34;;;;;;;6.33;4.47;;;22.20;99.80;;;;;;5032526;28;20545;-69
2023/06/02 10:46:20;;;;;;;8.63;4.90;;;22.30;99.90;;;;;;5046096;28;20582;-69
2023/06/02 10:48:47;;;;;;;5.00;4.00;;;22.50;99.10;;;;;;5051033;28;20559;-68
2023/06/02 10:51:14;;;;;;;4.60;4.20;;;22.60;99.90;;;;;;5051322;28;20485;-69
2023/06/02 10:54:14;;;;;;;4.47;4.07;;;22.70;99.60;;;;;;5051847;28;20470;-69
2023/06/02 10:56:42;;;;;;;4.87;4.37;;;23.00;99.90;;;;;;5051705;28;20465;-69
2023/06/02 10:59:10;;;;;;;6.00;4.03;;;23.20;99.40;;;;;;5051633;28;20475;-69
2023/06/02 11:01:49;;;;;;;5.43;3.90;;;23.10;99.40;;;;;;5051519;28;20467;-69
2023/06/02 11:04:28;;;;;;;9.13;4.30;;;23.20;98.30;;;;;;5052192;28;20512;-68
2023/06/02 11:07:21;;;;;;;4.60;4.10;;;23.30;99.10;;;;;;5051879;28;20459;-69
2023/06/02 11:09:50;;;;;;;5.40;4.30;;;23.30;97.60;;;;;;5028654;28;20490;-69
2023/06/02 11:12:17;;;;;;;4.50;4.00;;;23.30;98.50;;;;;;5027460;28;20465;-69
2023/06/02 11:15:18;;;;;;;4.57;4.00;;;23.30;98.80;;;;;;5031835;28;20462;-69
2023/06/02 11:17:50;;;;;;;5.20;4.67;;;23.40;98.20;;;;;;5021090;28;21262;-69
2023/06/02 11:20:18;;;;;;;4.80;4.00;;;23.50;97.90;;;;;;5026664;28;20855;-69
2023/06/02 11:22:46;;;;;;;5.70;4.33;;;23.60;98.30;;;;;;5031287;28;20883;-69
2023/06/02 11:25:15;;;;;;;5.47;4.63;;;23.60;98.90;;;;;;5030993;28;20469;-69
2023/06/02 11:27:44;;;;;;;4.77;4.30;;;23.70;98.70;;;;;;5031057;28;20514;-69
2023/06/02 11:30:14;;;;;;;5.10;4.60;;;23.70;97.50;;;;;;5031051;28;20560;-69
2023/06/02 11:32:40;;;;;;;4.07;3.67;;;23.70;97.30;;;;;;5030535;28;20469;-69
2023/06/02 11:35:11;;;;;;;4.20;3.80;;;23.80;97.20;;;;;;5031567;28;20461;-69
2023/06/02 11:37:40;;;;;;;5.27;4.17;;;24.00;98.00;;;;;;5030444;28;20867;-69
2023/06/02 11:40:09;;;;;;;4.80;4.40;;;24.20;97.00;;;;;;5030704;28;20473;-69
2023/06/02 11:42:38;;;;;;;4.10;3.70;;;24.20;98.10;;;;;;5031101;28;20465;-69
2023/06/02 11:45:06;;;;;;;4.77;4.27;;;24.20;97.10;;;;;;5031363;28;20490;-69
2023/06/02 11:47:34;;;;;;;4.60;4.10;;;24.30;96.90;;;;;;5030139;28;20489;-69
2023/06/02 11:50:01;;;;;;;4.40;3.57;;;24.10;96.20;;;;;;5030402;28;20493;-69
2023/06/02 11:52:33;;;;;;;4.83;3.70;;;24.30;96.30;;;;;;5031264;28;20464;-69
2023/06/02 11:55:00;;;;;;;4.53;3.70;;;24.40;96.90;;;;;;5030567;28;20504;-69
2023/06/02 11:57:32;;;;;;;5.77;3.70;;;24.40;96.00;;;;;;5030855;28;20548;-69
2023/06/02 12:00:09;;;;;;;3.93;3.63;;;24.50;95.30;;;;;;5030099;28;20470;-68
2023/06/02 12:02:38;;;;;;;4.30;3.90;;;24.40;95.20;;;;;;5030368;28;20471;-68
2023/06/02 12:05:07;;;;;;;4.30;3.90;;;24.30;96.00;;;;;;5030830;28;20463;-68
2023/06/02 12:07:35;;;;;;;3.80;3.50;;;24.20;96.00;;;;;;5030185;28;20493;-68
2023/06/02 12:10:03;;;;;;;5.17;4.00;;;24.30;96.70;;;;;;5029991;28;20488;-69
2023/06/02 12:12:31;;;;;;;4.00;3.60;;;24.50;96.00;;;;;;5030309;28;20514;-69
2023/06/02 12:14:57;;;;;;;3.80;3.50;;;24.50;95.00;;;;;;5022180;28;20507;-69
2023/06/02 12:17:24;;;;;;;4.17;3.77;;;24.70;94.60;;;;;;5030173;28;20515;-69
2023/06/02 12:19:58;;;;;;;3.57;3.27;;;24.60;96.10;;;;;;5029766;28;20586;-69
2023/06/02 12:22:24;;;;;;;4.13;3.80;;;24.70;94.80;;;;;;5030554;28;20470;-69
2023/06/02 12:24:53;;;;;;;4.93;3.77;;;24.80;95.50;;;;;;5029505;28;20472;-69
2023/06/02 12:27:23;;;;;;;5.03;3.53;;;24.90;95.10;;;;;;5030076;28;20482;-70
2023/06/02 12:29:50;;;;;;;3.57;3.27;;;24.80;94.30;;;;;;5029311;28;20962;-71
2023/06/02 12:32:26;;;;;;;4.73;3.70;;;24.90;96.20;;;;;;5030156;28;20499;-72
2023/06/02 12:34:53;;;;;;;4.53;3.23;;;25.20;95.70;;;;;;5029838;28;20498;-72
2023/06/02 12:37:19;;;;;;;5.73;3.70;;;25.20;95.00;;;;;;5023420;28;20489;-72
2023/06/02 12:39:46;;;;;;;4.20;3.43;;;25.20;95.70;;;;;;5027380;28;20471;-72
2023/06/02 12:42:18;;;;;;;4.30;3.20;;;25.30;94.80;;;;;;5030589;28;20463;-72
2023/06/02 12:44:46;;;;;;;3.40;3.07;;;25.40;93.90;;;;;;5040196;28;20470;-72
2023/06/02 12:47:13;;;;;;;3.80;3.13;;;25.30;93.70;;;;;;5050584;28;20573;-73
2023/06/02 12:49:40;;;;;;;4.63;4.03;;;25.40;94.00;;;;;;5043746;28;21087;-72
2023/06/02 12:52:06;;;;;;;3.90;3.50;;;25.50;94.20;;;;;;5049756;28;20473;-73
2023/06/02 12:54:33;;;;;;;4.20;3.80;;;25.50;93.90;;;;;;5050254;28;20467;-73
2023/06/02 12:57:00;;;;;;;3.90;3.40;;;25.80;93.20;;;;;;5038607;28;20459;-73
2023/06/02 12:59:28;;;;;;;3.67;3.37;;;25.70;93.10;;;;;;5030138;28;21026;-73
2023/06/02 13:01:55;;;;;;;3.23;2.93;;;25.60;92.70;;;;;;5049084;28;20467;-72
2023/06/02 13:04:22;;;;;;;3.60;3.27;;;25.70;93.00;;;;;;5049947;28;20463;-72
2023/06/02 13:06:48;;;;;;;3.80;3.50;;;25.70;93.40;;;;;;5045522;28;20465;-73
2023/06/02 13:09:15;;;;;;;4.07;3.67;;;25.80;93.40;;;;;;5036365;28;20471;-74
2023/06/02 13:11:42;;;;;;;4.30;3.47;;;25.70;92.20;;;;;;5036835;28;20479;-73
2023/06/02 13:14:10;;;;;;;3.37;3.07;;;25.80;92.50;;;;;;5049765;28;20541;-73
2023/06/02 13:16:38;;;;;;;4.20;3.40;;;25.90;93.20;;;;;;5050330;28;20463;-74
2023/06/02 13:19:05;;;;;;;4.90;2.93;;;25.80;92.90;;;;;;5052717;28;20483;-73